sensor_id;sensor_type;location;lat;lon;timestamp;temperature;humidity
38784;DHT22;24531;45.502;12.238;2022-10-16T00:00:31;21.80;85.20
38784;DHT22;24531;45.502;12.238;2022-10-16T00:02:57;21.80;85.20
38784;DHT22;24531;45.502;12.238;2022-10-16T00:05:22;21.70;85.20
38784;DHT22;24531;45.502;12.238;2022-10-16T00:07:48;21.70;85.20
38784;DHT22;24531;45.502;12.238;2022-10-16T00:10:13;21.70;85.40
38784;DHT22;24531;45.502;12.238;2022-10-16T00:12:39;21.70;85.50
38784;DHT22;24531;45.502;12.238;2022-10-16T00:15:04;21.70;85.50
38784;DHT22;24531;45.502;12.238;2022-10-16T00:17:31;21.80;85.40
38784;DHT22;24531;45.502;12.238;2022-10-16T00:19:56;21.80;85.40
38784;DHT22;24531;45.502;12.238;2022-10-16T00:22:22;21.80;85.40
38784;DHT22;24531;45.502;12.238;2022-10-16T00:24:48;21.80;85.40
38784;DHT22;24531;45.502;12.238;2022-10-16T00:27:13;21.80;85.50
38784;DHT22;24531;45.502;12.238;2022-10-16T00:29:39;21.70;85.40
38784;DHT22;24531;45.502;12.238;2022-10-16T00:32:04;21.80;85.50
38784;DHT22;24531;45.502;12.238;2022-10-16T00:34:30;21.70;85.50
38784;DHT22;24531;45.502;12.238;2022-10-16T00:36:55;21.70;85.50
38784;DHT22;24531;45.502;12.238;2022-10-16T00:39:21;21.70;85.60
38784;DHT22;24531;45.502;12.238;2022-10-16T00:41:47;21.70;85.60
38784;DHT22;24531;45.502;12.238;2022-10-16T00:46:57;21.70;85.70
38784;DHT22;24531;45.502;12.238;2022-10-16T00:49:22;21.70;85.70
38784;DHT22;24531;45.502;12.238;2022-10-16T00:51:51;21.70;85.80
38784;DHT22;24531;45.502;12.238;2022-10-16T00:54:21;21.70;85.70
38784;DHT22;24531;45.502;12.238;2022-10-16T00:56:47;21.60;85.80
38784;DHT22;24531;45.502;12.238;2022-10-16T00:59:15;21.60;86.00
38784;DHT22;24531;45.502;12.238;2022-10-16T01:01:41;21.60;86.10
38784;DHT22;24531;45.502;12.238;2022-10-16T01:04:06;21.60;86.00
38784;DHT22;24531;45.502;12.238;2022-10-16T01:06:51;21.70;86.00
38784;DHT22;24531;45.502;12.238;2022-10-16T01:10:09;21.60;86.00
38784;DHT22;24531;45.502;12.238;2022-10-16T01:12:23;21.60;86.00
38784;DHT22;24531;45.502;12.238;2022-10-16T01:15:13;21.50;86.20
38784;DHT22;24531;45.502;12.238;2022-10-16T01:20:31;21.40;86.60
38784;DHT22;24531;45.502;12.238;2022-10-16T01:25:25;21.40;86.70
38784;DHT22;24531;45.502;12.238;2022-10-16T01:27:55;21.40;86.80
38784;DHT22;24531;45.502;12.238;2022-10-16T01:30:26;21.40;86.80
38784;DHT22;24531;45.502;12.238;2022-10-16T01:32:55;21.40;86.90
38784;DHT22;24531;45.502;12.238;2022-10-16T01:38:26;21.50;86.80
38784;DHT22;24531;45.502;12.238;2022-10-16T01:40:58;21.50;86.70
38784;DHT22;24531;45.502;12.238;2022-10-16T01:43:27;21.50;86.80
38784;DHT22;24531;45.502;12.238;2022-10-16T01:45:54;21.50;86.80
38784;DHT22;24531;45.502;12.238;2022-10-16T01:48:20;21.50;86.70
38784;DHT22;24531;45.502;12.238;2022-10-16T01:50:52;21.40;86.80
38784;DHT22;24531;45.502;12.238;2022-10-16T01:53:18;21.50;86.80
38784;DHT22;24531;45.502;12.238;2022-10-16T01:55:46;21.40;86.70
38784;DHT22;24531;45.502;12.238;2022-10-16T01:58:13;21.40;86.70
38784;DHT22;24531;45.502;12.238;2022-10-16T02:00:39;21.50;86.80
38784;DHT22;24531;45.502;12.238;2022-10-16T02:03:06;21.50;86.70
38784;DHT22;24531;45.502;12.238;2022-10-16T02:05:34;21.50;86.50
38784;DHT22;24531;45.502;12.238;2022-10-16T02:08:02;21.50;86.40
38784;DHT22;24531;45.502;12.238;2022-10-16T02:10:27;21.50;86.60
38784;DHT22;24531;45.502;12.238;2022-10-16T02:13:03;21.50;86.70
38784;DHT22;24531;45.502;12.238;2022-10-16T02:15:31;21.50;86.50
38784;DHT22;24531;45.502;12.238;2022-10-16T02:17:56;21.40;86.60
38784;DHT22;24531;45.502;12.238;2022-10-16T02:20:24;21.50;86.70
38784;DHT22;24531;45.502;12.238;2022-10-16T02:22:50;21.40;86.60
38784;DHT22;24531;45.502;12.238;2022-10-16T02:25:19;21.50;86.70
38784;DHT22;24531;45.502;12.238;2022-10-16T02:32:57;21.50;86.70
38784;DHT22;24531;45.502;12.238;2022-10-16T02:35:23;21.50;86.70
38784;DHT22;24531;45.502;12.238;2022-10-16T02:37:49;21.50;87.50
38784;DHT22;24531;45.502;12.238;2022-10-16T02:40:16;21.50;86.80
38784;DHT22;24531;45.502;12.238;2022-10-16T02:42:42;21.50;86.80
38784;DHT22;24531;45.502;12.238;2022-10-16T02:45:08;21.50;86.80
38784;DHT22;24531;45.502;12.238;2022-10-16T02:47:34;21.50;86.80
38784;DHT22;24531;45.502;12.238;2022-10-16T02:49:59;21.50;86.80
38784;DHT22;24531;45.502;12.238;2022-10-16T02:52:25;21.50;86.90
38784;DHT22;24531;45.502;12.238;2022-10-16T02:54:50;21.50;87.00
38784;DHT22;24531;45.502;12.238;2022-10-16T02:57:17;21.40;86.90
38784;DHT22;24531;45.502;12.238;2022-10-16T02:59:43;21.50;86.90
38784;DHT22;24531;45.502;12.238;2022-10-16T03:02:08;21.50;86.90
38784;DHT22;24531;45.502;12.238;2022-10-16T03:04:34;21.50;86.90
38784;DHT22;24531;45.502;12.238;2022-10-16T03:07:00;21.50;87.00
38784;DHT22;24531;45.502;12.238;2022-10-16T03:09:25;21.40;87.00
38784;DHT22;24531;45.502;12.238;2022-10-16T03:11:51;21.40;87.10
38784;DHT22;24531;45.502;12.238;2022-10-16T03:14:17;21.40;87.10
38784;DHT22;24531;45.502;12.238;2022-10-16T03:16:42;21.30;87.20
38784;DHT22;24531;45.502;12.238;2022-10-16T03:19:08;21.30;87.30
38784;DHT22;24531;45.502;12.238;2022-10-16T03:21:33;21.30;87.30
38784;DHT22;24531;45.502;12.238;2022-10-16T03:23:59;21.20;87.30
38784;DHT22;24531;45.502;12.238;2022-10-16T03:26:25;21.20;87.50
38784;DHT22;24531;45.502;12.238;2022-10-16T03:28:50;21.20;87.50
38784;DHT22;24531;45.502;12.238;2022-10-16T03:31:16;21.20;87.50
38784;DHT22;24531;45.502;12.238;2022-10-16T03:33:41;21.10;87.50
38784;DHT22;24531;45.502;12.238;2022-10-16T03:36:07;21.10;87.80
38784;DHT22;24531;45.502;12.238;2022-10-16T03:38:32;21.10;87.90
38784;DHT22;24531;45.502;12.238;2022-10-16T03:40:58;21.00;87.90
38784;DHT22;24531;45.502;12.238;2022-10-16T03:43:23;21.00;87.90
38784;DHT22;24531;45.502;12.238;2022-10-16T03:45:51;21.00;88.00
38784;DHT22;24531;45.502;12.238;2022-10-16T03:48:17;21.10;88.00
38784;DHT22;24531;45.502;12.238;2022-10-16T03:50:43;21.10;88.80
38784;DHT22;24531;45.502;12.238;2022-10-16T03:53:09;21.00;88.00
38784;DHT22;24531;45.502;12.238;2022-10-16T03:55:35;21.00;88.20
38784;DHT22;24531;45.502;12.238;2022-10-16T03:58:00;21.00;88.20
38784;DHT22;24531;45.502;12.238;2022-10-16T04:00:26;20.90;88.10
38784;DHT22;24531;45.502;12.238;2022-10-16T04:02:51;20.90;88.10
38784;DHT22;24531;45.502;12.238;2022-10-16T04:05:17;20.90;88.30
38784;DHT22;24531;45.502;12.238;2022-10-16T04:07:42;20.90;88.40
38784;DHT22;24531;45.502;12.238;2022-10-16T04:10:08;20.90;88.30
38784;DHT22;24531;45.502;12.238;2022-10-16T04:12:33;20.90;88.60
38784;DHT22;24531;45.502;12.238;2022-10-16T04:14:59;20.80;88.40
38784;DHT22;24531;45.502;12.238;2022-10-16T04:17:24;20.80;88.50
38784;DHT22;24531;45.502;12.238;2022-10-16T04:19:50;20.80;88.60
38784;DHT22;24531;45.502;12.238;2022-10-16T04:22:15;20.80;88.60
38784;DHT22;24531;45.502;12.238;2022-10-16T04:24:41;20.80;88.50
38784;DHT22;24531;45.502;12.238;2022-10-16T04:27:06;20.80;88.50
38784;DHT22;24531;45.502;12.238;2022-10-16T04:29:32;20.70;88.60
38784;DHT22;24531;45.502;12.238;2022-10-16T04:31:57;20.70;88.80
38784;DHT22;24531;45.502;12.238;2022-10-16T04:34:23;20.80;88.80
38784;DHT22;24531;45.502;12.238;2022-10-16T04:36:48;20.70;88.70
38784;DHT22;24531;45.502;12.238;2022-10-16T04:39:17;20.80;88.80
38784;DHT22;24531;45.502;12.238;2022-10-16T04:41:42;20.70;88.70
38784;DHT22;24531;45.502;12.238;2022-10-16T04:44:08;20.70;88.90
38784;DHT22;24531;45.502;12.238;2022-10-16T04:46:33;20.70;88.90
38784;DHT22;24531;45.502;12.238;2022-10-16T04:48:59;20.70;88.90
38784;DHT22;24531;45.502;12.238;2022-10-16T04:51:24;20.70;88.80
38784;DHT22;24531;45.502;12.238;2022-10-16T04:53:51;20.70;88.90
38784;DHT22;24531;45.502;12.238;2022-10-16T04:56:16;20.70;88.90
38784;DHT22;24531;45.502;12.238;2022-10-16T04:58:42;20.70;88.90
38784;DHT22;24531;45.502;12.238;2022-10-16T05:01:07;20.70;88.90
38784;DHT22;24531;45.502;12.238;2022-10-16T05:03:33;20.70;88.90
38784;DHT22;24531;45.502;12.238;2022-10-16T05:05:58;20.70;88.90
38784;DHT22;24531;45.502;12.238;2022-10-16T05:08:24;20.70;88.80
38784;DHT22;24531;45.502;12.238;2022-10-16T05:10:50;20.60;88.90
38784;DHT22;24531;45.502;12.238;2022-10-16T05:13:15;20.60;89.00
38784;DHT22;24531;45.502;12.238;2022-10-16T05:15:41;20.60;88.90
38784;DHT22;24531;45.502;12.238;2022-10-16T05:18:06;20.60;88.90
38784;DHT22;24531;45.502;12.238;2022-10-16T05:20:32;20.60;89.00
38784;DHT22;24531;45.502;12.238;2022-10-16T05:22:57;20.60;89.10
38784;DHT22;24531;45.502;12.238;2022-10-16T05:25:23;20.50;89.10
38784;DHT22;24531;45.502;12.238;2022-10-16T05:27:48;20.50;89.10
38784;DHT22;24531;45.502;12.238;2022-10-16T05:30:15;20.50;89.20
38784;DHT22;24531;45.502;12.238;2022-10-16T05:32:41;20.50;89.10
38784;DHT22;24531;45.502;12.238;2022-10-16T05:35:06;20.50;89.10
38784;DHT22;24531;45.502;12.238;2022-10-16T05:37:32;20.50;89.20
38784;DHT22;24531;45.502;12.238;2022-10-16T05:39:58;20.50;89.10
38784;DHT22;24531;45.502;12.238;2022-10-16T05:42:23;20.50;89.10
38784;DHT22;24531;45.502;12.238;2022-10-16T05:44:48;20.40;89.00
38784;DHT22;24531;45.502;12.238;2022-10-16T05:47:14;20.40;89.00
38784;DHT22;24531;45.502;12.238;2022-10-16T05:49:40;20.40;89.10
38784;DHT22;24531;45.502;12.238;2022-10-16T05:52:05;20.40;89.10
38784;DHT22;24531;45.502;12.238;2022-10-16T05:54:31;20.40;89.20
38784;DHT22;24531;45.502;12.238;2022-10-16T05:56:56;20.30;89.20
38784;DHT22;24531;45.502;12.238;2022-10-16T05:59:22;20.30;89.20
38784;DHT22;24531;45.502;12.238;2022-10-16T06:01:47;20.30;89.20
38784;DHT22;24531;45.502;12.238;2022-10-16T06:04:13;20.30;89.20
38784;DHT22;24531;45.502;12.238;2022-10-16T06:06:38;20.30;89.20
38784;DHT22;24531;45.502;12.238;2022-10-16T06:09:04;20.30;89.20
38784;DHT22;24531;45.502;12.238;2022-10-16T06:11:30;20.30;89.10
38784;DHT22;24531;45.502;12.238;2022-10-16T06:13:57;20.20;89.20
38784;DHT22;24531;45.502;12.238;2022-10-16T06:16:23;20.20;89.10
38784;DHT22;24531;45.502;12.238;2022-10-16T06:18:52;20.20;89.20
38784;DHT22;24531;45.502;12.238;2022-10-16T06:21:19;20.30;89.20
38784;DHT22;24531;45.502;12.238;2022-10-16T06:23:45;20.30;89.10
38784;DHT22;24531;45.502;12.238;2022-10-16T06:26:14;20.30;89.10
38784;DHT22;24531;45.502;12.238;2022-10-16T06:28:40;20.30;89.10
38784;DHT22;24531;45.502;12.238;2022-10-16T06:31:07;20.30;89.00
38784;DHT22;24531;45.502;12.238;2022-10-16T06:33:33;20.30;88.90
38784;DHT22;24531;45.502;12.238;2022-10-16T06:36:02;20.20;89.00
38784;DHT22;24531;45.502;12.238;2022-10-16T06:38:28;20.30;89.10
38784;DHT22;24531;45.502;12.238;2022-10-16T06:40:54;20.30;88.90
38784;DHT22;24531;45.502;12.238;2022-10-16T06:43:19;20.30;88.90
38784;DHT22;24531;45.502;12.238;2022-10-16T06:45:52;20.20;88.80
38784;DHT22;24531;45.502;12.238;2022-10-16T06:48:18;20.30;88.90
38784;DHT22;24531;45.502;12.238;2022-10-16T06:50:43;20.30;88.80
38784;DHT22;24531;45.502;12.238;2022-10-16T06:53:09;20.40;88.80
38784;DHT22;24531;45.502;12.238;2022-10-16T06:55:34;20.40;88.90
38784;DHT22;24531;45.502;12.238;2022-10-16T06:58:00;20.40;88.80
38784;DHT22;24531;45.502;12.238;2022-10-16T07:00:25;20.50;88.80
38784;DHT22;24531;45.502;12.238;2022-10-16T07:02:51;20.50;88.90
38784;DHT22;24531;45.502;12.238;2022-10-16T07:05:16;20.60;88.70
38784;DHT22;24531;45.502;12.238;2022-10-16T07:07:42;20.80;88.90
38784;DHT22;24531;45.502;12.238;2022-10-16T07:10:08;20.90;88.80
38784;DHT22;24531;45.502;12.238;2022-10-16T07:12:33;21.00;88.60
38784;DHT22;24531;45.502;12.238;2022-10-16T07:14:59;21.00;88.50
38784;DHT22;24531;45.502;12.238;2022-10-16T07:17:24;21.10;88.60
38784;DHT22;24531;45.502;12.238;2022-10-16T07:19:50;21.30;88.60
38784;DHT22;24531;45.502;12.238;2022-10-16T07:22:18;21.50;88.60
38784;DHT22;24531;45.502;12.238;2022-10-16T07:24:43;21.70;88.40
38784;DHT22;24531;45.502;12.238;2022-10-16T07:27:09;21.80;88.10
38784;DHT22;24531;45.502;12.238;2022-10-16T07:29:35;22.00;88.10
38784;DHT22;24531;45.502;12.238;2022-10-16T07:32:01;22.10;88.10
38784;DHT22;24531;45.502;12.238;2022-10-16T07:34:26;22.30;88.10
38784;DHT22;24531;45.502;12.238;2022-10-16T07:36:52;22.50;87.90
38784;DHT22;24531;45.502;12.238;2022-10-16T07:39:18;22.70;87.80
38784;DHT22;24531;45.502;12.238;2022-10-16T07:41:43;22.90;87.70
38784;DHT22;24531;45.502;12.238;2022-10-16T07:44:09;23.10;87.50
38784;DHT22;24531;45.502;12.238;2022-10-16T07:46:34;23.20;87.10
38784;DHT22;24531;45.502;12.238;2022-10-16T07:49:01;23.10;86.90
38784;DHT22;24531;45.502;12.238;2022-10-16T07:51:27;23.10;86.80
38784;DHT22;24531;45.502;12.238;2022-10-16T07:53:53;23.00;86.90
38784;DHT22;24531;45.502;12.238;2022-10-16T07:56:19;23.00;86.80
38784;DHT22;24531;45.502;12.238;2022-10-16T07:58:45;23.00;86.90
38784;DHT22;24531;45.502;12.238;2022-10-16T08:01:12;23.10;86.90
38784;DHT22;24531;45.502;12.238;2022-10-16T08:03:40;23.20;86.90
38784;DHT22;24531;45.502;12.238;2022-10-16T08:06:06;23.30;86.70
38784;DHT22;24531;45.502;12.238;2022-10-16T08:08:32;23.50;86.60
38784;DHT22;24531;45.502;12.238;2022-10-16T08:10:57;23.80;86.20
38784;DHT22;24531;45.502;12.238;2022-10-16T08:13:23;24.10;86.30
38784;DHT22;24531;45.502;12.238;2022-10-16T08:15:49;24.50;86.20
38784;DHT22;24531;45.502;12.238;2022-10-16T08:18:15;24.70;85.80
38784;DHT22;24531;45.502;12.238;2022-10-16T08:20:41;24.90;85.60
38784;DHT22;24531;45.502;12.238;2022-10-16T08:23:07;25.10;85.60
38784;DHT22;24531;45.502;12.238;2022-10-16T08:25:34;25.40;85.60
38784;DHT22;24531;45.502;12.238;2022-10-16T08:27:59;25.70;85.20
38784;DHT22;24531;45.502;12.238;2022-10-16T08:30:25;25.90;85.10
38784;DHT22;24531;45.502;12.238;2022-10-16T08:32:50;26.10;84.90
38784;DHT22;24531;45.502;12.238;2022-10-16T08:35:16;26.20;84.50
38784;DHT22;24531;45.502;12.238;2022-10-16T08:37:42;26.40;84.60
38784;DHT22;24531;45.502;12.238;2022-10-16T08:40:28;26.70;84.60
38784;DHT22;24531;45.502;12.238;2022-10-16T08:43:00;27.00;84.50
38784;DHT22;24531;45.502;12.238;2022-10-16T08:50:36;27.70;83.20
38784;DHT22;24531;45.502;12.238;2022-10-16T08:53:04;27.50;83.10
38784;DHT22;24531;45.502;12.238;2022-10-16T08:55:49;27.20;83.50
38784;DHT22;24531;45.502;12.238;2022-10-16T08:58:16;27.00;83.50
38784;DHT22;24531;45.502;12.238;2022-10-16T09:00:43;26.90;83.30
38784;DHT22;24531;45.502;12.238;2022-10-16T09:03:13;26.70;83.30
38784;DHT22;24531;45.502;12.238;2022-10-16T09:15:53;26.70;82.30
38784;DHT22;24531;45.502;12.238;2022-10-16T09:20:50;26.60;82.20
38784;DHT22;24531;45.502;12.238;2022-10-16T09:23:35;26.60;82.10
38784;DHT22;24531;45.502;12.238;2022-10-16T09:26:01;26.60;81.80
38784;DHT22;24531;45.502;12.238;2022-10-16T09:28:28;26.60;81.30
38784;DHT22;24531;45.502;12.238;2022-10-16T09:30:53;26.50;81.30
38784;DHT22;24531;45.502;12.238;2022-10-16T09:33:20;26.40;81.00
38784;DHT22;24531;45.502;12.238;2022-10-16T09:35:50;26.40;81.10
38784;DHT22;24531;45.502;12.238;2022-10-16T09:38:27;26.40;81.10
38784;DHT22;24531;45.502;12.238;2022-10-16T09:40:54;26.60;81.00
38784;DHT22;24531;45.502;12.238;2022-10-16T09:46:02;26.60;80.70
38784;DHT22;24531;45.502;12.238;2022-10-16T09:48:33;26.60;80.70
38784;DHT22;24531;45.502;12.238;2022-10-16T09:51:01;26.60;80.50
38784;DHT22;24531;45.502;12.238;2022-10-16T09:53:43;26.60;80.70
38784;DHT22;24531;45.502;12.238;2022-10-16T09:56:10;26.60;80.70
38784;DHT22;24531;45.502;12.238;2022-10-16T09:58:41;26.60;80.50
38784;DHT22;24531;45.502;12.238;2022-10-16T10:01:11;26.50;80.30
38784;DHT22;24531;45.502;12.238;2022-10-16T10:03:39;26.50;80.40
38784;DHT22;24531;45.502;12.238;2022-10-16T10:06:16;26.50;80.40
38784;DHT22;24531;45.502;12.238;2022-10-16T10:08:55;26.50;80.40
38784;DHT22;24531;45.502;12.238;2022-10-16T10:11:40;26.50;80.50
38784;DHT22;24531;45.502;12.238;2022-10-16T10:14:09;26.40;80.50
38784;DHT22;24531;45.502;12.238;2022-10-16T10:16:38;26.40;80.60
38784;DHT22;24531;45.502;12.238;2022-10-16T10:19:04;26.40;80.80
38784;DHT22;24531;45.502;12.238;2022-10-16T10:21:32;26.30;80.80
38784;DHT22;24531;45.502;12.238;2022-10-16T10:23:57;26.30;80.80
38784;DHT22;24531;45.502;12.238;2022-10-16T10:26:27;26.20;80.80
38784;DHT22;24531;45.502;12.238;2022-10-16T10:29:58;26.20;81.00
38784;DHT22;24531;45.502;12.238;2022-10-16T10:34:32;26.30;80.90
38784;DHT22;24531;45.502;12.238;2022-10-16T10:37:25;26.20;81.70
38784;DHT22;24531;45.502;12.238;2022-10-16T10:39:49;26.20;80.60
38784;DHT22;24531;45.502;12.238;2022-10-16T10:43:00;26.10;80.60
38784;DHT22;24531;45.502;12.238;2022-10-16T10:55:28;25.70;81.00
38784;DHT22;24531;45.502;12.238;2022-10-16T11:00:30;25.60;80.90
38784;DHT22;24531;45.502;12.238;2022-10-16T11:03:12;25.60;81.20
38784;DHT22;24531;45.502;12.238;2022-10-16T11:08:14;25.90;81.30
38784;DHT22;24531;45.502;12.238;2022-10-16T11:13:28;26.00;81.50
38784;DHT22;24531;45.502;12.238;2022-10-16T11:15:57;26.10;81.30
38784;DHT22;24531;45.502;12.238;2022-10-16T11:18:36;26.20;81.20
38784;DHT22;24531;45.502;12.238;2022-10-16T11:21:04;26.20;81.20
38784;DHT22;24531;45.502;12.238;2022-10-16T11:23:33;26.30;80.90
38784;DHT22;24531;45.502;12.238;2022-10-16T11:26:02;26.30;80.90
38784;DHT22;24531;45.502;12.238;2022-10-16T11:28:31;26.30;81.50
38784;DHT22;24531;45.502;12.238;2022-10-16T11:41:03;26.10;80.40
38784;DHT22;24531;45.502;12.238;2022-10-16T11:46:01;26.00;80.40
38784;DHT22;24531;45.502;12.238;2022-10-16T11:48:43;26.00;80.40
38784;DHT22;24531;45.502;12.238;2022-10-16T11:51:14;25.90;80.40
38784;DHT22;24531;45.502;12.238;2022-10-16T11:56:06;25.90;80.40
38784;DHT22;24531;45.502;12.238;2022-10-16T11:58:33;25.90;80.50
38784;DHT22;24531;45.502;12.238;2022-10-16T12:06:28;26.00;80.40
38784;DHT22;24531;45.502;12.238;2022-10-16T12:08:57;26.00;80.40
38784;DHT22;24531;45.502;12.238;2022-10-16T12:11:34;26.00;80.30
38784;DHT22;24531;45.502;12.238;2022-10-16T12:16:38;26.00;80.40
38784;DHT22;24531;45.502;12.238;2022-10-16T12:19:15;25.90;80.20
38784;DHT22;24531;45.502;12.238;2022-10-16T12:21:41;25.90;80.50
38784;DHT22;24531;45.502;12.238;2022-10-16T12:26:53;26.00;80.70
38784;DHT22;24531;45.502;12.238;2022-10-16T12:29:22;26.00;80.70
38784;DHT22;24531;45.502;12.238;2022-10-16T12:31:48;26.00;81.40
38784;DHT22;24531;45.502;12.238;2022-10-16T12:34:57;25.90;80.60
38784;DHT22;24531;45.502;12.238;2022-10-16T12:37:08;25.90;80.70
38784;DHT22;24531;45.502;12.238;2022-10-16T12:39:34;25.70;80.60
38784;DHT22;24531;45.502;12.238;2022-10-16T12:42:17;25.60;81.00
38784;DHT22;24531;45.502;12.238;2022-10-16T12:44:44;25.60;81.20
38784;DHT22;24531;45.502;12.238;2022-10-16T12:47:19;25.60;81.30
38784;DHT22;24531;45.502;12.238;2022-10-16T12:49:48;25.60;81.20
38784;DHT22;24531;45.502;12.238;2022-10-16T12:52:56;25.40;81.20
38784;DHT22;24531;45.502;12.238;2022-10-16T12:55:03;25.40;81.50
38784;DHT22;24531;45.502;12.238;2022-10-16T12:57:36;25.30;81.30
38784;DHT22;24531;45.502;12.238;2022-10-16T13:00:24;25.30;81.50
38784;DHT22;24531;45.502;12.238;2022-10-16T13:10:35;25.70;80.70
38784;DHT22;24531;45.502;12.238;2022-10-16T13:23:26;25.80;79.90
38784;DHT22;24531;45.502;12.238;2022-10-16T13:28:21;25.70;80.10
38784;DHT22;24531;45.502;12.238;2022-10-16T13:30:53;25.60;80.10
38784;DHT22;24531;45.502;12.238;2022-10-16T13:33:21;25.70;80.40
38784;DHT22;24531;45.502;12.238;2022-10-16T13:35:50;25.60;80.30
38784;DHT22;24531;45.502;12.238;2022-10-16T13:38:17;25.60;80.30
38784;DHT22;24531;45.502;12.238;2022-10-16T13:40:50;25.60;80.20
38784;DHT22;24531;45.502;12.238;2022-10-16T13:43:17;25.60;80.20
38784;DHT22;24531;45.502;12.238;2022-10-16T13:45:52;25.40;80.10
38784;DHT22;24531;45.502;12.238;2022-10-16T13:48:17;25.40;80.30
38784;DHT22;24531;45.502;12.238;2022-10-16T13:50:43;25.30;80.40
38784;DHT22;24531;45.502;12.238;2022-10-16T13:53:12;25.30;80.40
38784;DHT22;24531;45.502;12.238;2022-10-16T13:55:38;25.20;80.40
38784;DHT22;24531;45.502;12.238;2022-10-16T13:58:04;25.20;80.60
38784;DHT22;24531;45.502;12.238;2022-10-16T14:00:30;25.20;80.60
38784;DHT22;24531;45.502;12.238;2022-10-16T14:02:58;25.10;81.50
38784;DHT22;24531;45.502;12.238;2022-10-16T14:05:25;25.20;81.00
38784;DHT22;24531;45.502;12.238;2022-10-16T14:07:51;25.20;80.90
38784;DHT22;24531;45.502;12.238;2022-10-16T14:10:21;25.20;81.80
38784;DHT22;24531;45.502;12.238;2022-10-16T14:12:55;25.30;81.00
38784;DHT22;24531;45.502;12.238;2022-10-16T14:15:20;25.30;80.90
38784;DHT22;24531;45.502;12.238;2022-10-16T14:17:48;25.30;80.90
38784;DHT22;24531;45.502;12.238;2022-10-16T14:20:14;25.40;80.90
38784;DHT22;24531;45.502;12.238;2022-10-16T14:22:41;25.40;80.90
38784;DHT22;24531;45.502;12.238;2022-10-16T14:27:45;25.40;80.80
38784;DHT22;24531;45.502;12.238;2022-10-16T14:30:15;25.30;80.80
38784;DHT22;24531;45.502;12.238;2022-10-16T14:32:42;25.40;80.90
38784;DHT22;24531;45.502;12.238;2022-10-16T14:35:30;25.30;80.70
38784;DHT22;24531;45.502;12.238;2022-10-16T14:37:56;25.30;80.60
38784;DHT22;24531;45.502;12.238;2022-10-16T14:40:27;25.30;80.50
38784;DHT22;24531;45.502;12.238;2022-10-16T14:42:53;25.30;80.50
38784;DHT22;24531;45.502;12.238;2022-10-16T14:45:19;25.30;80.60
38784;DHT22;24531;45.502;12.238;2022-10-16T14:47:47;25.30;80.60
38784;DHT22;24531;45.502;12.238;2022-10-16T14:50:13;25.30;80.60
38784;DHT22;24531;45.502;12.238;2022-10-16T14:52:39;25.30;81.50
38784;DHT22;24531;45.502;12.238;2022-10-16T14:55:05;25.20;80.70
38784;DHT22;24531;45.502;12.238;2022-10-16T14:57:31;25.10;80.80
38784;DHT22;24531;45.502;12.238;2022-10-16T14:59:57;25.10;80.90
38784;DHT22;24531;45.502;12.238;2022-10-16T15:02:30;25.00;80.90
38784;DHT22;24531;45.502;12.238;2022-10-16T15:04:56;25.00;81.10
38784;DHT22;24531;45.502;12.238;2022-10-16T15:07:22;24.90;81.20
38784;DHT22;24531;45.502;12.238;2022-10-16T15:09:48;24.90;81.60
38784;DHT22;24531;45.502;12.238;2022-10-16T15:12:13;24.80;81.70
38784;DHT22;24531;45.502;12.238;2022-10-16T15:14:39;24.80;81.80
38784;DHT22;24531;45.502;12.238;2022-10-16T15:17:04;24.80;81.80
38784;DHT22;24531;45.502;12.238;2022-10-16T15:19:30;24.80;81.80
38784;DHT22;24531;45.502;12.238;2022-10-16T15:21:55;24.80;81.90
38784;DHT22;24531;45.502;12.238;2022-10-16T15:24:21;24.80;81.90
38784;DHT22;24531;45.502;12.238;2022-10-16T15:26:46;24.70;82.00
38784;DHT22;24531;45.502;12.238;2022-10-16T15:29:12;24.70;82.10
38784;DHT22;24531;45.502;12.238;2022-10-16T15:31:38;24.60;82.20
38784;DHT22;24531;45.502;12.238;2022-10-16T15:34:04;24.50;82.40
38784;DHT22;24531;45.502;12.238;2022-10-16T15:36:34;24.50;82.70
38784;DHT22;24531;45.502;12.238;2022-10-16T15:39:05;24.40;83.00
38784;DHT22;24531;45.502;12.238;2022-10-16T15:41:35;24.30;83.20
38784;DHT22;24531;45.502;12.238;2022-10-16T15:44:01;24.20;83.40
38784;DHT22;24531;45.502;12.238;2022-10-16T15:46:26;24.20;83.50
38784;DHT22;24531;45.502;12.238;2022-10-16T15:48:55;24.30;83.50
38784;DHT22;24531;45.502;12.238;2022-10-16T15:51:21;24.20;83.60
38784;DHT22;24531;45.502;12.238;2022-10-16T15:53:46;24.20;83.80
38784;DHT22;24531;45.502;12.238;2022-10-16T15:56:12;24.10;83.90
38784;DHT22;24531;45.502;12.238;2022-10-16T15:58:38;24.10;83.90
38784;DHT22;24531;45.502;12.238;2022-10-16T16:01:04;24.10;84.10
38784;DHT22;24531;45.502;12.238;2022-10-16T16:03:30;24.10;84.10
38784;DHT22;24531;45.502;12.238;2022-10-16T16:05:56;24.10;84.10
38784;DHT22;24531;45.502;12.238;2022-10-16T16:08:21;24.00;84.30
38784;DHT22;24531;45.502;12.238;2022-10-16T16:11:03;24.00;84.30
38784;DHT22;24531;45.502;12.238;2022-10-16T16:13:29;24.00;84.40
38784;DHT22;24531;45.502;12.238;2022-10-16T16:15:54;23.90;84.50
38784;DHT22;24531;45.502;12.238;2022-10-16T16:18:20;23.90;84.70
38784;DHT22;24531;45.502;12.238;2022-10-16T16:20:45;23.80;84.70
38784;DHT22;24531;45.502;12.238;2022-10-16T16:23:11;23.80;85.00
38784;DHT22;24531;45.502;12.238;2022-10-16T16:25:36;23.80;85.00
38784;DHT22;24531;45.502;12.238;2022-10-16T16:28:02;23.70;85.10
38784;DHT22;24531;45.502;12.238;2022-10-16T16:30:27;23.60;85.20
38784;DHT22;24531;45.502;12.238;2022-10-16T16:32:53;23.60;85.40
38784;DHT22;24531;45.502;12.238;2022-10-16T16:35:18;23.60;85.40
38784;DHT22;24531;45.502;12.238;2022-10-16T16:37:44;23.50;85.50
38784;DHT22;24531;45.502;12.238;2022-10-16T16:40:09;23.50;85.60
38784;DHT22;24531;45.502;12.238;2022-10-16T16:42:35;23.50;85.80
38784;DHT22;24531;45.502;12.238;2022-10-16T16:45:00;23.50;85.90
38784;DHT22;24531;45.502;12.238;2022-10-16T16:47:26;23.40;85.90
38784;DHT22;24531;45.502;12.238;2022-10-16T16:49:51;23.40;86.00
38784;DHT22;24531;45.502;12.238;2022-10-16T16:52:17;23.40;86.20
38784;DHT22;24531;45.502;12.238;2022-10-16T16:54:43;23.40;86.30
38784;DHT22;24531;45.502;12.238;2022-10-16T16:57:10;23.30;86.30
38784;DHT22;24531;45.502;12.238;2022-10-16T16:59:35;23.40;86.50
38784;DHT22;24531;45.502;12.238;2022-10-16T17:02:01;23.30;86.50
38784;DHT22;24531;45.502;12.238;2022-10-16T17:04:27;23.30;86.40